Time;durP1;ratioP1;P1;durP2;ratioP2;P2;SDS_P1;SDS_P2;PMS_P1;PMS_P2;Temp;Humidity;BMP_temperature;BMP_pressure;BME280_temperature;BME280_humidity;BME280_pressure;Samples;Min_cycle;Max_cycle;Signal;HPM_P1;HPM_P2
2024/01/01 00:00:34;;;;;;;22.27;11.38;;;7.10;99.90;;;;;;5067074;28;20964;-68
2024/01/01 00:03:00;;;;;;;23.42;10.82;;;7.20;99.90;;;;;;5075367;28;20044;-69
2024/01/01 00:05:25;;;;;;;22.85;9.48;;;7.20;99.90;;;;;;5076148;28;20032;-68
2024/01/01 00:07:51;;;;;;;24.60;11.10;;;7.30;99.90;;;;;;5080562;28;20020;-68
2024/01/01 00:10:20;;;;;;;22.17;8.52;;;7.40;99.90;;;;;;5079314;28;20027;-68
2024/01/01 00:12:46;;;;;;;18.05;9.18;;;7.40;99.90;;;;;;5079825;28;20070;-68
2024/01/01 00:15:12;;;;;;;23.92;9.55;;;7.40;99.90;;;;;;5078784;28;20051;-68
2024/01/01 00:17:39;;;;;;;22.30;9.20;;;7.40;99.90;;;;;;5079004;28;20072;-68
2024/01/01 00:20:05;;;;;;;17.83;9.18;;;7.50;99.90;;;;;;5078915;28;20062;-68
2024/01/01 00:22:31;;;;;;;18.92;9.07;;;7.50;99.90;;;;;;5073517;28;20032;-68
2024/01/01 00:24:58;;;;;;;16.73;7.25;;;7.60;99.90;;;;;;5079341;28;20039;-69
2024/01/01 00:27:24;;;;;;;20.15;8.55;;;7.60;99.90;;;;;;5077122;28;20020;-68
2024/01/01 00:29:50;;;;;;;22.80;9.98;;;7.60;99.90;;;;;;5079715;28;20642;-68
2024/01/01 00:32:16;;;;;;;19.63;8.63;;;7.60;99.90;;;;;;5079974;28;20043;-68
2024/01/01 00:34:42;;;;;;;22.92;9.32;;;7.60;99.90;;;;;;5074826;28;20031;-68
2024/01/01 00:37:08;;;;;;;22.52;10.43;;;7.70;99.90;;;;;;5076777;28;20024;-68
2024/01/01 00:39:33;;;;;;;25.15;11.45;;;7.60;99.90;;;;;;5078552;28;20038;-68
2024/01/01 00:41:59;;;;;;;22.25;9.80;;;7.60;99.90;;;;;;5077600;28;20028;-68
2024/01/01 00:44:26;;;;;;;22.75;10.75;;;7.60;99.90;;;;;;5072895;28;20029;-68
2024/01/01 00:46:52;;;;;;;22.60;10.27;;;7.60;99.90;;;;;;5077475;28;20082;-68
2024/01/01 00:49:17;;;;;;;25.77;11.90;;;7.60;99.90;;;;;;5073833;28;20113;-68
2024/01/01 00:51:43;;;;;;;26.02;11.15;;;7.60;99.90;;;;;;5075597;28;20039;-68
2024/01/01 00:54:11;;;;;;;20.58;9.02;;;7.60;99.90;;;;;;5079283;28;20035;-68
2024/01/01 00:56:36;;;;;;;26.00;11.48;;;7.50;99.90;;;;;;5069474;28;20576;-68
2024/01/01 00:59:02;;;;;;;27.90;10.93;;;7.60;99.90;;;;;;5079259;28;20198;-68
2024/01/01 01:01:27;;;;;;;28.65;9.23;;;7.50;99.90;;;;;;5074660;28;20062;-68
2024/01/01 01:03:53;;;;;;;31.67;12.52;;;7.50;99.90;;;;;;5079815;28;20051;-68
2024/01/01 01:06:20;;;;;;;27.27;12.60;;;7.40;99.90;;;;;;5077312;28;20038;-68
2024/01/01 01:08:46;;;;;;;20.05;8.52;;;7.30;99.90;;;;;;5078092;28;20028;-68
2024/01/01 01:11:11;;;;;;;26.60;10.82;;;7.30;99.90;;;;;;5072005;28;20027;-68
2024/01/01 01:13:37;;;;;;;25.55;10.25;;;7.30;99.90;;;;;;5079577;28;20024;-68
2024/01/01 01:16:03;;;;;;;23.98;9.82;;;7.30;99.90;;;;;;5077103;28;20126;-68
2024/01/01 01:18:28;;;;;;;21.33;10.35;;;7.40;99.90;;;;;;5074489;28;20032;-68
2024/01/01 01:20:54;;;;;;;20.75;10.10;;;7.50;99.90;;;;;;5072198;28;20399;-68
2024/01/01 01:23:19;;;;;;;23.38;9.15;;;7.50;99.90;;;;;;5084191;28;20028;-68
2024/01/01 01:25:45;;;;;;;22.17;9.00;;;7.50;99.90;;;;;;5076284;28;20039;-68
2024/01/01 01:28:11;;;;;;;25.10;9.38;;;7.50;99.90;;;;;;5075399;28;20475;-68
2024/01/01 01:30:36;;;;;;;22.52;9.82;;;7.50;99.90;;;;;;5077749;28;20031;-68
2024/01/01 01:33:02;;;;;;;23.98;9.75;;;7.50;99.90;;;;;;5082176;28;20059;-68
2024/01/01 01:35:28;;;;;;;29.92;9.18;;;7.50;99.90;;;;;;5077132;28;20099;-68
2024/01/01 01:37:53;;;;;;;24.67;8.95;;;7.40;99.90;;;;;;5075089;28;20021;-68
2024/01/01 01:40:19;;;;;;;22.17;8.68;;;7.50;99.90;;;;;;5076636;28;20039;-68
2024/01/01 01:42:48;;;;;;;21.75;8.15;;;7.50;99.90;;;;;;5072138;28;20033;-68
2024/01/01 01:45:14;;;;;;;23.88;7.95;;;7.50;99.90;;;;;;5077703;28;20441;-68
2024/01/01 01:47:40;;;;;;;17.85;7.32;;;7.50;99.90;;;;;;5077151;28;20112;-68
2024/01/01 01:50:07;;;;;;;25.52;8.05;;;7.60;99.90;;;;;;5078999;28;20030;-68
2024/01/01 01:52:35;;;;;;;21.25;6.15;;;7.50;99.90;;;;;;5072478;28;20525;-68
2024/01/01 01:55:01;;;;;;;20.42;6.93;;;7.50;99.90;;;;;;5078108;28;20028;-68
2024/01/01 01:57:27;;;;;;;13.15;5.22;;;7.50;99.90;;;;;;5074917;28;20487;-68
2024/01/01 01:59:53;;;;;;;20.98;6.28;;;7.50;99.90;;;;;;5075379;28;20056;-68
2024/01/01 02:02:22;;;;;;;17.98;6.07;;;7.50;99.90;;;;;;5072802;28;20711;-68
2024/01/01 02:04:49;;;;;;;17.90;6.07;;;7.50;99.90;;;;;;5075924;28;20031;-68
2024/01/01 02:07:15;;;;;;;14.55;5.15;;;7.50;99.90;;;;;;5081271;28;20016;-68
2024/01/01 02:09:41;;;;;;;16.02;4.95;;;7.30;99.90;;;;;;5073496;28;20102;-69
2024/01/01 02:12:08;;;;;;;14.27;4.30;;;7.30;99.90;;;;;;5071558;28;20032;-68
2024/01/01 02:14:34;;;;;;;13.48;4.63;;;7.30;99.90;;;;;;5078902;28;20406;-68
2024/01/01 02:17:00;;;;;;;14.75;4.45;;;7.30;99.90;;;;;;5078199;28;20107;-68
2024/01/01 02:19:27;;;;;;;14.05;4.55;;;7.30;99.90;;;;;;5077638;28;20127;-68
2024/01/01 02:21:55;;;;;;;11.85;3.60;;;7.30;99.90;;;;;;5079927;28;20051;-68
2024/01/01 02:24:21;;;;;;;12.10;3.90;;;7.30;99.90;;;;;;5077010;28;20031;-68
2024/01/01 02:26:48;;;;;;;11.85;4.22;;;7.30;99.90;;;;;;5080321;28;20024;-68
2024/01/01 02:29:14;;;;;;;11.98;3.95;;;7.30;99.90;;;;;;5076286;28;20077;-68
2024/01/01 02:31:40;;;;;;;12.00;3.53;;;7.30;99.90;;;;;;5073864;28;20397;-68
2024/01/01 02:34:06;;;;;;;12.85;3.78;;;7.20;99.90;;;;;;5077371;28;20028;-68
2024/01/01 02:36:37;;;;;;;10.35;2.72;;;7.20;99.90;;;;;;5076043;28;20073;-69
2024/01/01 02:39:04;;;;;;;9.23;2.30;;;7.10;99.90;;;;;;5078174;28;20038;-68
2024/01/01 02:41:34;;;;;;;10.70;3.85;;;7.20;99.90;;;;;;5070615;28;20032;-68
2024/01/01 02:44:00;;;;;;;;;;;7.10;99.90;;;;;;5069336;28;20037;-68
2024/01/01 02:46:25;;;;;;;9.57;2.53;;;7.20;99.90;;;;;;5083460;28;19919;-68
2024/01/01 02:48:51;;;;;;;9.07;2.50;;;7.10;99.90;;;;;;5073683;28;20096;-68
2024/01/01 02:51:16;;;;;;;7.57;2.10;;;7.10;99.90;;;;;;5080003;28;20084;-68
2024/01/01 02:53:42;;;;;;;5.63;1.80;;;7.20;99.90;;;;;;5075618;28;20039;-68
2024/01/01 02:56:18;;;;;;;8.93;2.35;;;7.20;99.90;;;;;;5078912;28;20031;-68
2024/01/01 02:58:44;;;;;;;10.00;2.13;;;7.10;99.90;;;;;;5076012;28;20468;-68
2024/01/01 03:01:10;;;;;;;15.43;3.05;;;7.10;99.90;;;;;;5074533;28;20393;-68
2024/01/01 03:03:36;;;;;;;11.65;2.17;;;7.00;99.90;;;;;;5071646;28;20119;-68
2024/01/01 03:06:02;;;;;;;19.48;4.38;;;6.80;99.90;;;;;;5077701;28;20099;-68
2024/01/01 03:08:28;;;;;;;10.82;2.47;;;6.60;99.90;;;;;;5078539;28;20017;-68
2024/01/01 03:10:53;;;;;;;11.43;2.17;;;6.20;99.90;;;;;;5077544;28;20082;-68
2024/01/01 03:13:19;;;;;;;7.38;1.75;;;6.20;99.90;;;;;;5077052;28;20028;-68
2024/01/01 03:15:44;;;;;;;7.38;1.83;;;6.00;99.90;;;;;;5068076;28;20140;-68
2024/01/01 03:18:17;;;;;;;8.57;1.42;;;5.80;99.90;;;;;;5080356;28;20028;-68
2024/01/01 03:20:42;;;;;;;9.27;2.17;;;5.80;99.90;;;;;;5074873;28;20063;-68
2024/01/01 03:23:08;;;;;;;7.88;2.08;;;5.70;99.90;;;;;;5075928;28;20078;-68
2024/01/01 03:25:34;;;;;;;7.75;1.65;;;5.60;99.90;;;;;;5075828;28;20111;-68
2024/01/01 03:27:59;;;;;;;8.95;1.88;;;5.60;99.90;;;;;;5078360;28;20091;-68
2024/01/01 03:30:25;;;;;;;6.93;1.90;;;5.60;99.90;;;;;;5075557;28;20194;-68
2024/01/01 03:32:51;;;;;;;14.55;2.47;;;5.60;99.90;;;;;;5073188;28;20043;-68
2024/01/01 03:35:17;;;;;;;9.05;2.03;;;5.60;99.90;;;;;;5066091;28;20568;-68
2024/01/01 03:37:42;;;;;;;7.38;1.58;;;5.60;99.90;;;;;;5078097;28;20032;-67
2024/01/01 03:40:09;;;;;;;8.85;1.73;;;5.60;99.90;;;;;;5067262;28;20036;-68
2024/01/01 03:42:35;;;;;;;13.18;2.65;;;5.60;99.90;;;;;;5073916;28;20028;-67
2024/01/01 03:45:01;;;;;;;10.38;2.15;;;5.60;99.90;;;;;;5071970;28;20028;-67
2024/01/01 03:47:27;;;;;;;5.45;1.73;;;5.60;99.90;;;;;;5070469;28;20036;-67
2024/01/01 03:49:53;;;;;;;9.35;1.60;;;5.60;99.90;;;;;;5074939;28;20089;-67
2024/01/01 03:52:18;;;;;;;8.43;1.80;;;5.60;99.90;;;;;;5083612;28;20846;-67
2024/01/01 03:54:44;;;;;;;8.52;1.73;;;5.60;99.90;;;;;;5075543;28;20033;-67
2024/01/01 03:57:09;;;;;;;15.50;2.15;;;5.60;99.90;;;;;;5075320;28;20123;-68
2024/01/01 03:59:35;;;;;;;9.05;1.90;;;5.70;99.90;;;;;;5073838;28;20028;-67
2024/01/01 04:02:01;;;;;;;6.35;1.60;;;5.70;99.90;;;;;;5076641;28;20527;-67
2024/01/01 04:04:26;;;;;;;6.90;1.70;;;5.70;99.90;;;;;;5078483;28;20024;-67
2024/01/01 04:06:52;;;;;;;3.83;1.45;;;5.70;99.90;;;;;;5079310;28;20029;-67
2024/01/01 04:09:18;;;;;;;7.57;1.45;;;5.70;99.90;;;;;;5079486;28;20030;-67
2024/01/01 04:11:44;;;;;;;12.57;2.60;;;5.70;99.90;;;;;;5074284;28;20024;-67
2024/01/01 04:14:10;;;;;;;11.15;2.63;;;5.80;99.90;;;;;;5075315;28;20035;-67
2024/01/01 04:16:37;;;;;;;9.00;1.95;;;5.60;99.90;;;;;;5078291;28;20092;-67
2024/01/01 04:19:03;;;;;;;12.90;2.22;;;5.70;99.90;;;;;;5075578;28;20029;-67
2024/01/01 04:21:29;;;;;;;18.10;2.38;;;5.80;99.90;;;;;;5078903;28;20029;-67
2024/01/01 04:23:57;;;;;;;16.58;1.65;;;5.90;99.90;;;;;;5078480;28;20506;-67
2024/01/01 04:26:24;;;;;;;11.70;2.15;;;5.80;99.90;;;;;;5077284;28;20039;-67
2024/01/01 04:28:49;;;;;;;14.32;2.13;;;5.90;99.90;;;;;;5086433;28;20028;-67
2024/01/01 04:31:15;;;;;;;16.77;2.92;;;5.90;99.90;;;;;;5075197;28;20437;-67
2024/01/01 04:33:41;;;;;;;10.15;2.00;;;6.00;99.90;;;;;;5073584;28;20021;-67
2024/01/01 04:36:07;;;;;;;12.07;2.28;;;6.00;99.90;;;;;;5077970;28;20025;-67
2024/01/01 04:38:32;;;;;;;9.40;1.98;;;6.00;99.90;;;;;;5079906;28;20057;-70
2024/01/01 04:40:58;;;;;;;13.25;1.98;;;6.00;99.90;;;;;;5079089;28;20099;-67
2024/01/01 04:43:24;;;;;;;13.68;2.10;;;6.00;99.90;;;;;;5075898;28;20059;-68
2024/01/01 04:45:49;;;;;;;11.40;2.10;;;6.00;99.90;;;;;;5081247;28;20024;-68
2024/01/01 04:48:15;;;;;;;11.60;2.20;;;6.00;99.90;;;;;;5077444;28;20383;-69
2024/01/01 04:50:41;;;;;;;16.30;2.60;;;6.10;99.90;;;;;;5080932;28;20032;-68
2024/01/01 04:53:07;;;;;;;11.43;1.92;;;6.20;99.90;;;;;;5076838;28;20075;-68
2024/01/01 04:55:32;;;;;;;11.82;2.03;;;6.20;99.90;;;;;;5080760;28;20032;-68
2024/01/01 04:57:58;;;;;;;18.33;2.70;;;6.20;99.90;;;;;;5081460;28;20471;-68
2024/01/01 05:00:23;;;;;;;11.15;2.33;;;6.20;99.90;;;;;;5084059;28;20500;-68
2024/01/01 05:02:49;;;;;;;10.32;2.47;;;6.30;99.90;;;;;;5079718;28;20048;-68
2024/01/01 05:05:15;;;;;;;8.82;1.90;;;6.30;99.90;;;;;;5080132;28;20524;-68
2024/01/01 05:07:44;;;;;;;12.35;2.72;;;6.30;99.90;;;;;;5077167;28;20056;-68
2024/01/01 05:10:09;;;;;;;10.40;2.28;;;6.30;99.90;;;;;;5081115;28;20103;-68
2024/01/01 05:12:35;;;;;;;14.88;2.70;;;6.40;99.90;;;;;;5080016;28;20408;-68
2024/01/01 05:15:01;;;;;;;12.57;2.47;;;6.30;99.90;;;;;;5079022;28;20111;-68
2024/01/01 05:17:26;;;;;;;11.32;2.13;;;6.30;99.90;;;;;;5080801;28;20103;-68
2024/01/01 05:19:52;;;;;;;9.52;2.20;;;6.30;99.90;;;;;;5077557;28;20058;-68
2024/01/01 05:22:18;;;;;;;10.43;2.10;;;6.40;99.90;;;;;;5080515;28;20067;-68
2024/01/01 05:24:43;;;;;;;15.40;2.75;;;6.40;99.90;;;;;;5077650;28;20024;-68
2024/01/01 05:27:09;;;;;;;15.05;2.40;;;6.40;99.90;;;;;;5079760;28;20055;-69
2024/01/01 05:29:35;;;;;;;13.45;2.28;;;6.40;99.90;;;;;;5079876;28;20028;-68
2024/01/01 05:32:01;;;;;;;14.40;2.17;;;6.50;99.90;;;;;;5077854;28;20608;-68
2024/01/01 05:34:27;;;;;;;14.63;2.45;;;6.50;99.90;;;;;;5080442;28;20451;-68
2024/01/01 05:36:53;;;;;;;10.77;2.10;;;6.50;99.90;;;;;;5078005;28;20455;-68
2024/01/01 05:39:18;;;;;;;14.15;1.95;;;6.60;99.90;;;;;;5081553;28;20020;-68
2024/01/01 05:41:44;;;;;;;10.25;2.15;;;6.60;99.90;;;;;;5084270;28;20036;-68
2024/01/01 05:44:09;;;;;;;8.77;1.67;;;6.70;99.90;;;;;;5080847;28;20024;-68
2024/01/01 05:46:35;;;;;;;13.48;2.75;;;6.70;99.90;;;;;;5077260;28;20451;-68
2024/01/01 05:49:01;;;;;;;10.68;1.90;;;6.80;99.90;;;;;;5078802;28;20021;-68
2024/01/01 05:51:26;;;;;;;8.23;1.75;;;6.80;99.90;;;;;;5079792;28;20843;-68
2024/01/01 05:53:52;;;;;;;9.88;1.95;;;6.90;99.90;;;;;;5078341;28;20016;-67
2024/01/01 05:56:17;;;;;;;10.35;2.17;;;6.90;99.90;;;;;;5081373;28;20130;-67
2024/01/01 05:58:43;;;;;;;6.22;1.52;;;7.00;99.90;;;;;;5080888;28;20506;-67
2024/01/01 06:01:09;;;;;;;10.00;2.08;;;7.00;99.90;;;;;;5075221;28;20063;-67
2024/01/01 06:03:34;;;;;;;8.50;1.60;;;7.00;99.90;;;;;;5078409;28;20024;-68
2024/01/01 06:06:00;;;;;;;13.90;2.03;;;7.00;99.90;;;;;;5079077;28;20425;-68
2024/01/01 06:08:26;;;;;;;8.70;1.63;;;7.00;99.90;;;;;;5078662;28;20028;-67
2024/01/01 06:10:51;;;;;;;14.85;2.65;;;7.00;99.90;;;;;;5077938;28;20021;-68
2024/01/01 06:13:18;;;;;;;9.40;2.08;;;7.00;99.90;;;;;;5079547;28;20039;-67
2024/01/01 06:15:44;;;;;;;6.47;1.90;;;7.00;99.90;;;;;;5076996;28;20103;-68
2024/01/01 06:18:10;;;;;;;15.02;2.47;;;7.10;99.90;;;;;;5081166;28;20111;-67
2024/01/01 06:20:36;;;;;;;13.20;2.20;;;7.10;99.90;;;;;;5076716;28;20062;-67
2024/01/01 06:23:03;;;;;;;9.00;2.30;;;7.10;99.90;;;;;;5076245;28;20372;-67
2024/01/01 06:25:28;;;;;;;13.20;2.90;;;7.10;99.90;;;;;;5083463;28;20083;-68
2024/01/01 06:27:54;;;;;;;15.07;2.35;;;7.10;99.90;;;;;;5079151;28;20024;-67
2024/01/01 06:30:20;;;;;;;8.38;1.77;;;7.20;99.90;;;;;;5078148;28;20674;-67
2024/01/01 06:32:45;;;;;;;14.55;2.15;;;7.10;99.90;;;;;;5077249;28;20024;-68
2024/01/01 06:35:11;;;;;;;17.83;2.95;;;7.10;99.90;;;;;;5080485;28;20031;-68
2024/01/01 06:37:37;;;;;;;10.75;2.20;;;7.20;99.90;;;;;;5072295;28;20037;-68
2024/01/01 06:40:04;;;;;;;15.23;2.50;;;7.20;99.90;;;;;;5076725;28;20032;-67
2024/01/01 06:42:30;;;;;;;11.63;2.00;;;7.20;99.90;;;;;;5078204;28;20069;-67
2024/01/01 06:45:16;;;;;;;12.05;1.80;;;7.20;99.90;;;;;;5085455;28;20028;-67
2024/01/01 06:47:41;;;;;;;9.00;2.25;;;7.30;99.90;;;;;;5074903;28;20032;-67
2024/01/01 06:50:07;;;;;;;10.95;1.75;;;7.40;99.90;;;;;;5077131;28;20371;-67
2024/01/01 06:52:33;;;;;;;8.73;1.67;;;7.30;99.90;;;;;;5080325;28;20491;-68
2024/01/01 06:54:59;;;;;;;14.05;1.83;;;7.30;99.90;;;;;;5076880;28;20024;-67
2024/01/01 06:57:24;;;;;;;6.63;1.80;;;7.30;99.90;;;;;;5078259;28;20028;-68
2024/01/01 06:59:50;;;;;;;8.80;1.73;;;7.30;99.90;;;;;;5084781;28;20105;-68
2024/01/01 07:02:16;;;;;;;9.38;2.67;;;7.20;99.90;;;;;;5077163;28;20475;-67
2024/01/01 07:04:42;;;;;;;7.38;2.30;;;7.30;99.90;;;;;;5075285;28;20039;-67
2024/01/01 07:07:08;;;;;;;8.10;1.30;;;7.20;99.90;;;;;;5079243;28;20805;-67
2024/01/01 07:09:33;;;;;;;13.50;2.15;;;7.30;99.90;;;;;;5077272;28;20029;-68
2024/01/01 07:12:23;;;;;;;9.85;1.83;;;7.20;99.90;;;;;;5078845;28;20029;-68
2024/01/01 07:14:49;;;;;;;15.27;2.58;;;7.20;99.90;;;;;;5075272;28;20029;-67
2024/01/01 07:17:16;;;;;;;8.07;1.55;;;7.20;99.90;;;;;;5080908;28;20483;-68
2024/01/01 07:19:43;;;;;;;10.07;2.15;;;7.20;99.90;;;;;;5088034;28;20081;-68
2024/01/01 07:22:09;;;;;;;15.40;2.50;;;7.20;99.90;;;;;;5081994;28;20028;-68
2024/01/01 07:24:35;;;;;;;11.32;1.77;;;7.20;99.90;;;;;;5082923;28;20016;-67
2024/01/01 07:27:00;;;;;;;9.10;1.83;;;7.20;99.90;;;;;;5081836;28;20111;-67
2024/01/01 07:29:27;;;;;;;13.77;2.15;;;7.10;99.90;;;;;;5083783;28;20487;-67
2024/01/01 07:31:53;;;;;;;8.40;2.10;;;7.00;99.90;;;;;;5080458;28;20035;-68
2024/01/01 07:34:19;;;;;;;7.20;1.67;;;6.90;99.90;;;;;;5078151;28;20020;-69
2024/01/01 07:36:46;;;;;;;10.32;1.95;;;6.80;99.90;;;;;;5073325;28;20464;-68
2024/01/01 07:39:12;;;;;;;10.13;2.10;;;6.70;99.90;;;;;;5077977;28;20357;-69
2024/01/01 07:41:38;;;;;;;13.63;1.90;;;6.60;99.90;;;;;;5081210;28;20077;-68
2024/01/01 07:44:04;;;;;;;13.10;1.80;;;6.40;99.90;;;;;;5079997;28;20029;-69
2024/01/01 07:46:30;;;;;;;14.55;1.88;;;6.30;99.90;;;;;;5083226;28;20013;-69
2024/01/01 07:48:56;;;;;;;10.45;2.70;;;6.30;99.90;;;;;;5080869;28;20527;-70
2024/01/01 07:51:22;;;;;;;10.55;2.28;;;6.20;99.90;;;;;;5080590;28;20020;-69
2024/01/01 07:53:50;;;;;;;11.27;2.08;;;6.10;99.90;;;;;;5078245;28;20020;-69
2024/01/01 07:56:15;;;;;;;9.95;1.70;;;6.10;99.90;;;;;;5081947;28;20065;-69
2024/01/01 07:58:41;;;;;;;8.10;1.98;;;6.10;99.90;;;;;;5076657;28;20024;-69
2024/01/01 08:01:06;;;;;;;11.13;2.08;;;6.00;99.90;;;;;;5073472;28;20044;-69
2024/01/01 08:03:32;;;;;;;14.90;2.17;;;6.00;99.90;;;;;;5083948;28;20017;-69
2024/01/01 08:05:58;;;;;;;8.75;2.28;;;6.10;99.90;;;;;;5081013;28;20427;-69
2024/01/01 08:08:24;;;;;;;10.75;1.88;;;6.10;99.90;;;;;;5078852;28;20031;-69
2024/01/01 08:10:50;;;;;;;12.07;2.13;;;6.10;99.90;;;;;;5082083;28;20360;-69
2024/01/01 08:13:15;;;;;;;11.05;2.10;;;6.10;99.90;;;;;;5073432;28;20028;-69
2024/01/01 08:15:41;;;;;;;14.07;2.22;;;6.20;99.90;;;;;;5076268;28;20448;-69
2024/01/01 08:18:07;;;;;;;9.57;2.15;;;6.20;99.90;;;;;;5079602;28;20035;-69
2024/01/01 08:20:32;;;;;;;13.18;2.15;;;6.20;99.90;;;;;;5083391;28;20027;-69
2024/01/01 08:22:58;;;;;;;10.48;2.15;;;6.20;99.90;;;;;;5077300;28;20136;-70
2024/01/01 08:25:24;;;;;;;9.65;1.88;;;6.30;99.90;;;;;;5083026;28;20627;-69
2024/01/01 08:27:49;;;;;;;7.45;2.30;;;6.30;99.90;;;;;;5072014;28;20027;-69
2024/01/01 08:30:15;;;;;;;14.32;2.60;;;6.30;99.90;;;;;;5084344;28;20055;-69
2024/01/01 08:32:41;;;;;;;8.25;1.83;;;6.30;99.90;;;;;;5080883;28;20105;-69
2024/01/01 08:35:06;;;;;;;10.38;2.38;;;6.30;99.90;;;;;;5077025;28;20040;-69
2024/01/01 08:37:32;;;;;;;11.73;2.20;;;6.30;99.90;;;;;;5080002;28;20540;-69
2024/01/01 08:39:58;;;;;;;5.45;2.00;;;6.40;99.90;;;;;;5087619;28;20032;-69
2024/01/01 08:42:24;;;;;;;5.88;1.77;;;6.40;99.90;;;;;;5074832;28;20056;-69
2024/01/01 08:44:50;;;;;;;5.80;1.77;;;6.30;99.90;;;;;;5080027;28;20020;-69
2024/01/01 08:47:16;;;;;;;5.30;1.65;;;6.40;99.90;;;;;;5075302;28;20371;-69
2024/01/01 08:49:42;;;;;;;10.80;1.90;;;6.40;99.90;;;;;;5077870;28;20402;-69
2024/01/01 08:52:07;;;;;;;10.88;1.65;;;6.40;99.90;;;;;;5079373;28;20070;-69
2024/01/01 08:54:33;;;;;;;6.18;1.42;;;6.40;99.90;;;;;;5075909;28;20048;-69
2024/01/01 08:56:59;;;;;;;11.73;2.03;;;6.50;99.90;;;;;;5084624;28;20042;-69
2024/01/01 08:59:24;;;;;;;8.65;1.70;;;6.50;99.90;;;;;;5079105;28;20078;-69
2024/01/01 09:01:50;;;;;;;5.40;1.65;;;6.50;99.90;;;;;;5075231;28;20028;-69
2024/01/01 09:04:17;;;;;;;6.82;1.85;;;6.50;99.90;;;;;;5082246;28;20051;-69
2024/01/01 09:06:43;;;;;;;7.68;1.50;;;6.60;99.90;;;;;;5076757;28;20472;-69
2024/01/01 09:09:10;;;;;;;4.97;1.30;;;6.70;99.90;;;;;;5075385;28;20522;-69
2024/01/01 09:11:36;;;;;;;6.90;1.63;;;6.60;99.90;;;;;;5077533;28;20020;-69
2024/01/01 09:14:02;;;;;;;4.20;1.40;;;6.60;99.90;;;;;;5078864;28;20078;-69
2024/01/01 09:16:29;;;;;;;5.65;1.25;;;6.60;99.90;;;;;;5074347;28;20052;-69
2024/01/01 09:19:02;;;;;;;8.63;1.40;;;6.60;99.90;;;;;;5079362;28;20613;-69
2024/01/01 09:21:27;;;;;;;4.63;1.27;;;6.60;99.90;;;;;;5074320;28;20524;-69
2024/01/01 09:24:00;;;;;;;5.40;1.45;;;6.70;99.90;;;;;;5076928;28;20012;-69
2024/01/01 09:26:27;;;;;;;3.92;1.20;;;6.70;99.90;;;;;;5071263;28;20032;-68
2024/01/01 09:28:52;;;;;;;4.95;1.45;;;6.70;99.90;;;;;;5078749;28;20028;-69
2024/01/01 09:31:18;;;;;;;4.07;1.25;;;6.60;99.90;;;;;;5080122;28;20028;-69
2024/01/01 09:33:44;;;;;;;6.03;1.40;;;6.70;99.90;;;;;;5078991;28;20024;-68
2024/01/01 09:36:13;;;;;;;5.63;1.33;;;6.70;99.90;;;;;;5079925;28;20028;-68
2024/01/01 09:38:39;;;;;;;5.20;1.55;;;6.60;99.90;;;;;;5076220;28;20078;-68
2024/01/01 09:41:05;;;;;;;7.30;1.35;;;6.70;99.90;;;;;;5078656;28;20039;-68
2024/01/01 09:43:31;;;;;;;6.95;1.30;;;6.70;99.90;;;;;;5075041;28;20032;-68
2024/01/01 09:45:57;;;;;;;2.42;1.00;;;6.70;99.90;;;;;;5084603;28;20101;-68
2024/01/01 09:48:23;;;;;;;6.80;1.48;;;6.70;99.90;;;;;;5074203;28;20123;-67
2024/01/01 09:50:50;;;;;;;5.65;1.42;;;6.70;99.90;;;;;;5077568;28;20543;-68
2024/01/01 09:53:19;;;;;;;7.10;1.55;;;6.80;99.90;;;;;;5076934;28;20968;-68
2024/01/01 09:55:52;;;;;;;4.82;1.30;;;6.80;99.90;;;;;;5080039;28;20048;-67
2024/01/01 09:58:18;;;;;;;5.70;1.63;;;6.80;99.90;;;;;;5072814;28;20036;-68
2024/01/01 10:00:44;;;;;;;11.70;1.65;;;6.90;99.90;;;;;;5071310;28;20555;-68
2024/01/01 10:03:10;;;;;;;4.25;1.88;;;6.80;99.90;;;;;;5079372;28;20039;-68
2024/01/01 10:05:40;;;;;;;5.53;1.30;;;6.70;99.90;;;;;;5076654;28;20024;-68
2024/01/01 10:08:10;;;;;;;7.43;1.67;;;6.60;99.90;;;;;;5071184;28;20543;-68
2024/01/01 10:10:38;;;;;;;6.05;1.60;;;6.60;99.90;;;;;;5080981;28;20059;-69
2024/01/01 10:13:12;;;;;;;2.90;0.95;;;6.60;99.90;;;;;;5070613;28;20091;-68
2024/01/01 10:15:41;;;;;;;7.20;1.83;;;6.50;99.90;;;;;;5078337;28;20034;-68
2024/01/01 10:18:17;;;;;;;4.93;1.05;;;6.50;99.90;;;;;;5082429;28;20369;-68
2024/01/01 10:20:44;;;;;;;8.75;1.85;;;6.50;99.90;;;;;;5078082;28;20026;-68
2024/01/01 10:23:21;;;;;;;5.32;1.63;;;6.50;99.90;;;;;;5079192;28;20032;-68
2024/01/01 10:25:50;;;;;;;7.28;1.67;;;6.50;99.90;;;;;;5072432;28;20036;-68
2024/01/01 10:28:16;;;;;;;8.82;1.90;;;6.50;99.90;;;;;;5075010;28;20028;-68
2024/01/01 10:30:52;;;;;;;5.30;1.42;;;6.50;99.90;;;;;;5074582;28;20020;-68
2024/01/01 10:33:19;;;;;;;7.82;1.52;;;6.50;99.90;;;;;;5074754;28;20028;-68
2024/01/01 10:35:45;;;;;;;7.00;1.90;;;6.70;99.90;;;;;;5077782;28;20029;-68
2024/01/01 10:38:11;;;;;;;9.98;1.70;;;6.60;99.90;;;;;;5067177;28;20078;-69
2024/01/01 10:40:37;;;;;;;5.53;1.60;;;6.70;99.90;;;;;;5071693;28;20026;-68
2024/01/01 10:43:04;;;;;;;6.28;1.88;;;6.70;99.90;;;;;;5075546;28;20025;-68
2024/01/01 10:45:30;;;;;;;9.35;1.60;;;6.70;99.90;;;;;;5081391;28;20402;-67
2024/01/01 10:47:59;;;;;;;3.22;1.30;;;6.70;99.90;;;;;;5075509;28;20028;-66
2024/01/01 10:50:30;;;;;;;8.25;1.50;;;6.70;99.90;;;;;;5078330;28;20131;-67
2024/01/01 10:53:23;;;;;;;5.30;1.77;;;6.80;99.90;;;;;;5075674;28;20024;-67
2024/01/01 10:56:00;;;;;;;6.55;1.90;;;6.80;99.90;;;;;;5070577;28;20046;-68
2024/01/01 10:59:10;;;;;;;6.15;1.23;;;6.80;99.90;;;;;;5076703;28;20024;-67
2024/01/01 11:01:37;;;;;;;6.77;1.60;;;6.80;99.90;;;;;;4987342;28;20051;-67
2024/01/01 11:04:04;;;;;;;9.45;2.10;;;6.80;99.90;;;;;;5061513;28;20308;-67
2024/01/01 11:06:35;;;;;;;9.68;2.03;;;6.90;99.90;;;;;;5070791;28;20453;-67
2024/01/01 11:09:19;;;;;;;5.47;1.55;;;6.90;99.90;;;;;;5072670;28;20022;-67
2024/01/01 11:11:49;;;;;;;5.80;2.15;;;6.90;99.90;;;;;;5075034;28;20150;-67
2024/01/01 11:14:27;;;;;;;8.35;1.40;;;6.90;99.90;;;;;;5078108;28;20031;-66
2024/01/01 11:16:54;;;;;;;8.45;1.75;;;7.00;99.90;;;;;;5070854;28;20096;-67
2024/01/01 11:19:49;;;;;;;5.60;1.35;;;7.10;99.90;;;;;;5083093;28;20646;-67
2024/01/01 11:22:20;;;;;;;7.63;1.70;;;7.20;99.90;;;;;;5071284;28;20051;-67
2024/01/01 11:24:47;;;;;;;5.97;1.20;;;7.20;99.90;;;;;;5071597;28;20100;-67
2024/01/01 11:27:31;;;;;;;10.18;1.75;;;7.30;99.90;;;;;;5074969;28;20522;-67
2024/01/01 11:30:02;;;;;;;7.43;1.80;;;7.30;99.90;;;;;;5066583;28;20028;-67
2024/01/01 11:32:27;;;;;;;;;;;7.30;99.90;;;;;;5068884;28;20031;-67
2024/01/01 11:35:07;;;;;;;10.05;1.50;;;7.30;99.90;;;;;;5068776;28;20002;-67
2024/01/01 11:37:34;;;;;;;;;;;7.30;99.90;;;;;;5073692;28;20114;-67
2024/01/01 11:40:01;;;;;;;9.23;1.88;;;7.30;99.90;;;;;;5073944;28;19914;-67
2024/01/01 11:42:30;;;;;;;11.38;1.90;;;7.30;99.90;;;;;;5072703;28;20027;-67
2024/01/01 11:45:18;;;;;;;9.13;1.67;;;7.20;99.90;;;;;;5075816;28;20029;-67
2024/01/01 11:47:45;;;;;;;4.70;1.30;;;7.30;99.90;;;;;;5080430;28;20016;-67
2024/01/01 11:50:12;;;;;;;9.10;2.38;;;7.30;99.90;;;;;;5070962;28;20372;-67
2024/01/01 11:52:38;;;;;;;5.15;1.40;;;7.30;99.90;;;;;;5078284;28;20039;-67
2024/01/01 11:55:04;;;;;;;5.43;1.40;;;7.40;99.90;;;;;;5071641;28;20365;-68
2024/01/01 11:57:30;;;;;;;6.97;2.00;;;7.40;99.90;;;;;;5076883;28;20025;-68
2024/01/01 11:59:56;;;;;;;6.88;1.75;;;7.50;99.90;;;;;;5076762;28;20036;-68
2024/01/01 12:02:22;;;;;;;6.57;1.60;;;7.50;99.90;;;;;;5072512;28;20044;-68
2024/01/01 12:04:53;;;;;;;10.30;1.83;;;7.50;99.90;;;;;;5077720;28;20020;-68
2024/01/01 12:07:45;;;;;;;9.45;2.17;;;7.50;99.90;;;;;;5076908;28;20037;-68
2024/01/01 12:10:14;;;;;;;9.75;1.83;;;7.50;99.90;;;;;;5070323;28;20032;-68
2024/01/01 12:12:41;;;;;;;10.07;2.25;;;7.40;99.90;;;;;;5075552;28;20054;-68
2024/01/01 12:15:10;;;;;;;9.60;2.13;;;7.30;99.90;;;;;;5079604;28;20483;-68
2024/01/01 12:17:43;;;;;;;8.20;2.10;;;7.10;99.90;;;;;;5073260;28;20035;-69
2024/01/01 12:20:10;;;;;;;13.63;2.47;;;7.00;99.90;;;;;;5073182;28;20032;-68
2024/01/01 12:22:36;;;;;;;9.45;2.53;;;6.90;99.90;;;;;;5077326;28;20043;-68
2024/01/01 12:25:02;;;;;;;9.45;2.50;;;6.90;99.90;;;;;;5070960;28;20030;-68
2024/01/01 12:27:28;;;;;;;7.90;1.75;;;6.90;99.90;;;;;;5074018;28;20025;-68
2024/01/01 12:29:57;;;;;;;9.60;1.95;;;6.90;99.90;;;;;;5079514;28;20035;-68
2024/01/01 12:32:23;;;;;;;8.57;2.33;;;7.00;99.90;;;;;;5079571;28;20032;-68
2024/01/01 12:34:50;;;;;;;10.93;1.60;;;6.90;99.90;;;;;;5075808;28;20063;-68
2024/01/01 12:37:17;;;;;;;9.27;1.75;;;7.00;99.90;;;;;;5073505;28;20028;-68
2024/01/01 12:39:43;;;;;;;10.85;2.03;;;7.00;99.90;;;;;;5072616;28;20035;-68
2024/01/01 12:42:09;;;;;;;7.97;1.40;;;7.00;99.90;;;;;;5075368;28;20025;-68
2024/01/01 12:44:35;;;;;;;8.88;1.70;;;7.00;99.90;;;;;;5075936;28;20081;-68
2024/01/01 12:47:01;;;;;;;7.45;1.80;;;7.00;99.90;;;;;;5076861;28;20475;-68
2024/01/01 12:49:30;;;;;;;12.15;2.20;;;7.00;99.90;;;;;;5084452;28;20024;-68
2024/01/01 12:51:57;;;;;;;6.78;1.70;;;7.10;99.90;;;;;;5077113;28;20024;-68